Time;durP1;ratioP1;P1;durP2;ratioP2;P2;SDS_P1;SDS_P2;PMS_P1;PMS_P2;Temp;Humidity;BMP_temperature;BMP_pressure;BME280_temperature;BME280_humidity;BME280_pressure;Samples;Min_cycle;Max_cycle;Signal;HPM_P1;HPM_P2
2021/12/05 00:19:57;;;;;;;6.13;1.52;;;;;;;2.32;79.56;96159.31;5015958;28;20042;-57
2021/12/05 00:22:42;;;;;;;3.72;0.93;;;;;;;2.46;78.18;96150.03;5020902;28;20062;-57
2021/12/05 00:25:13;;;;;;;4.97;1.15;;;;;;;2.49;78.65;96150.59;5012931;28;20115;-59
2021/12/05 00:27:46;;;;;;;4.25;1.02;;;;;;;2.36;78.66;96143.63;5005304;28;20046;-58
2021/12/05 00:46:43;;;;;;;3.55;0.63;;;;;;;2.63;74.62;96132.50;5003757;28;20065;-58
2021/12/05 00:55:02;;;;;;;9.68;0.95;;;;;;;2.53;75.83;96135.75;5024982;28;20045;-58
2021/12/05 01:03:10;;;;;;;3.63;0.90;;;;;;;2.08;77.24;96116.53;5032229;28;20094;-57
2021/12/05 01:16:34;;;;;;;2.65;0.90;;;;;;;2.28;76.02;96136.78;5025567;28;20064;-59
2021/12/05 01:19:07;;;;;;;5.30;0.98;;;;;;;2.29;76.39;96144.53;5026568;28;20053;-59
2021/12/05 01:21:38;;;;;;;4.90;0.70;;;;;;;2.36;75.94;96149.78;5011302;28;20114;-58
2021/12/05 01:40:20;;;;;;;5.88;1.15;;;;;;;2.32;76.46;96167.31;5035279;28;20041;-59
2021/12/05 01:59:13;;;;;;;10.23;1.20;;;;;;;1.60;82.82;96159.06;5023530;28;20053;-58
2021/12/05 02:45:27;;;;;;;4.03;1.05;;;;;;;0.89;87.05;96122.91;5022361;28;20084;-59
2021/12/05 02:47:54;;;;;;;3.97;0.93;;;;;;;0.85;85.29;96124.38;5014992;28;20056;-59
2021/12/05 02:50:25;;;;;;;3.10;0.90;;;;;;;1.01;84.87;96124.84;5024085;28;20417;-58
2021/12/05 02:52:57;;;;;;;3.03;0.67;;;;;;;0.94;84.42;96119.59;5027051;28;20128;-59
2021/12/05 02:55:40;;;;;;;1.58;0.77;;;;;;;0.81;85.27;96123.19;5025391;28;20299;-60
2021/12/05 03:01:46;;;;;;;5.57;1.35;;;;;;;0.67;85.73;96116.38;5003169;28;20041;-57
2021/12/05 03:04:09;;;;;;;4.22;1.45;;;;;;;0.76;85.30;96118.53;5013518;28;20049;-58
2021/12/05 03:06:38;;;;;;;5.70;1.42;;;;;;;0.96;84.75;96116.72;5039232;28;20488;-59
2021/12/05 03:09:13;;;;;;;2.72;0.98;;;;;;;1.04;84.10;96108.41;5047186;28;20045;-59
2021/12/05 03:11:41;;;;;;;3.70;0.90;;;;;;;0.98;83.60;96109.28;5029653;28;20128;-59
2021/12/05 03:14:08;;;;;;;4.07;0.98;;;;;;;0.98;84.86;96101.28;5006203;28;20050;-58
2021/12/05 03:16:37;;;;;;;3.33;0.85;;;;;;;0.99;83.89;96111.75;5034081;28;20120;-58
2021/12/05 03:19:06;;;;;;;4.50;0.90;;;;;;;1.06;83.30;96113.53;5025091;28;20049;-58
2021/12/05 03:21:34;;;;;;;3.85;0.93;;;;;;;1.14;82.85;96114.03;5014219;28;20148;-59
2021/12/05 03:24:03;;;;;;;3.70;0.90;;;;;;;1.27;82.41;96110.41;5022738;28;20060;-57
2021/12/05 03:26:34;;;;;;;7.03;1.10;;;;;;;1.25;81.99;96112.47;5003942;28;20046;-57
2021/12/05 03:29:05;;;;;;;1.45;0.85;;;;;;;1.14;82.74;96103.38;5008213;28;20570;-57
2021/12/05 03:31:32;;;;;;;7.03;1.90;;;;;;;1.19;82.98;96113.38;5033355;28;20053;-58
2021/12/05 03:34:02;;;;;;;3.33;1.00;;;;;;;1.19;82.54;96112.56;5018402;28;20739;-59
2021/12/05 03:36:30;;;;;;;3.85;0.82;;;;;;;1.25;83.15;96109.00;5029148;28;20037;-58
2021/12/05 03:38:57;;;;;;;4.90;1.13;;;;;;;1.34;86.46;96107.66;5024815;28;20049;-59
2021/12/05 03:41:24;;;;;;;8.65;1.20;;;;;;;1.34;86.70;96110.31;5030076;28;20065;-56
2021/12/05 03:43:54;;;;;;;2.78;1.08;;;;;;;1.21;84.20;96110.50;5024592;28;20397;-59
2021/12/05 03:46:21;;;;;;;6.68;1.83;;;;;;;0.79;85.11;96111.94;5041573;28;20095;-59
2021/12/05 03:48:53;;;;;;;4.88;0.93;;;;;;;0.84;87.85;96114.75;5023701;28;20041;-59
2021/12/05 03:51:23;;;;;;;5.25;1.20;;;;;;;0.72;86.04;96108.53;5015271;28;20075;-58
2021/12/05 03:53:51;;;;;;;5.57;1.50;;;;;;;0.72;85.45;96120.00;5022969;28;20635;-58
2021/12/05 03:56:20;;;;;;;3.78;1.10;;;;;;;0.57;85.63;96123.03;5040535;28;20045;-60
2021/12/05 03:58:49;;;;;;;2.55;0.90;;;;;;;0.42;86.79;96115.38;5059388;28;20079;-59
2021/12/05 04:01:17;;;;;;;3.88;1.00;;;;;;;0.40;86.94;96113.97;5021780;28;20056;-60
2021/12/05 04:03:47;;;;;;;6.43;1.73;;;;;;;0.35;87.01;96115.44;5037023;28;20033;-59
2021/12/05 04:06:18;;;;;;;0.88;0.63;;;;;;;0.48;87.33;96117.16;5043274;28;20045;-58
2021/12/05 04:08:46;;;;;;;5.35;1.40;;;;;;;0.41;87.21;96118.25;5044287;28;20040;-59
2021/12/05 04:11:18;;;;;;;6.75;1.17;;;;;;;0.45;89.37;96109.63;5024001;28;20049;-60
2021/12/05 04:13:45;;;;;;;6.60;2.33;;;;;;;0.63;89.37;96100.03;5024912;28;20484;-56
2021/12/05 04:16:14;;;;;;;4.30;0.98;;;;;;;0.63;88.35;96106.16;5024961;28;20038;-59
2021/12/05 04:18:45;;;;;;;2.95;0.77;;;;;;;0.80;86.48;96108.25;5038144;28;20060;-59
2021/12/05 04:21:15;;;;;;;4.65;1.08;;;;;;;0.82;85.98;96106.19;5024622;28;20041;-58
2021/12/05 04:23:43;;;;;;;2.40;0.93;;;;;;;0.82;85.89;96094.72;5024676;28;20060;-59
2021/12/05 04:26:12;;;;;;;3.08;1.20;;;;;;;0.73;86.88;96096.84;5006031;28;20129;-60
2021/12/05 04:28:39;;;;;;;5.70;1.50;;;;;;;0.57;87.31;96096.38;5036387;28;20115;-59
2021/12/05 04:31:10;;;;;;;6.03;1.20;;;;;;;0.50;87.36;96092.97;5022960;28;20140;-59
2021/12/05 04:33:39;;;;;;;0.70;0.50;;;;;;;0.41;87.67;96092.44;5038162;28;20045;-59
2021/12/05 04:36:07;;;;;;;5.75;1.60;;;;;;;0.36;87.91;96092.25;5023253;28;20041;-59
2021/12/05 04:38:34;;;;;;;4.85;0.88;;;;;;;0.40;87.80;96090.00;5025029;28;20048;-58
2021/12/05 04:41:00;;;;;;;5.88;1.30;;;;;;;0.51;86.80;96087.41;5027276;28;20041;-59
2021/12/05 04:43:36;;;;;;;2.13;0.88;;;;;;;0.42;87.79;96091.41;5025695;28;20050;-59
2021/12/05 04:46:05;;;;;;;3.10;1.02;;;;;;;0.31;88.88;96100.09;5036130;28;20057;-59
2021/12/05 04:48:32;;;;;;;2.70;0.90;;;;;;;0.14;88.51;96097.97;5047452;28;20128;-59
2021/12/05 04:51:00;;;;;;;6.25;0.95;;;;;;;0.02;88.98;96095.19;5032450;28;20045;-59
2021/12/05 04:53:28;;;;;;;6.57;1.70;;;;;;;0.10;90.53;96094.94;5012054;28;20042;-58
2021/12/05 04:55:56;;;;;;;4.80;1.42;;;;;;;-0.04;89.00;96106.72;5022115;28;20045;-57
2021/12/05 04:58:24;;;;;;;2.75;0.82;;;;;;;-0.07;89.23;96107.13;5029009;28;20041;-56
2021/12/05 05:00:53;;;;;;;2.50;1.35;;;;;;;-0.07;88.98;96109.81;5018002;28;20050;-57
2021/12/05 05:03:20;;;;;;;2.50;1.08;;;;;;;-0.09;89.15;96101.22;5030773;28;20045;-58
2021/12/05 05:05:53;;;;;;;2.55;1.23;;;;;;;-0.07;89.23;96099.97;5038426;28;20040;-59
2021/12/05 05:08:20;;;;;;;2.28;0.95;;;;;;;-0.06;89.18;96101.59;5027419;28;20056;-56
2021/12/05 05:10:48;;;;;;;2.55;1.13;;;;;;;-0.17;88.84;96096.97;5035125;28;20049;-59
2021/12/05 05:13:14;;;;;;;4.05;1.45;;;;;;;-0.16;89.40;96102.06;5048954;28;20048;-58
2021/12/05 05:15:41;;;;;;;4.47;1.63;;;;;;;-0.14;89.35;96104.53;5037272;28;20095;-58
2021/12/05 05:18:10;;;;;;;6.72;1.98;;;;;;;-0.21;89.04;96103.75;5021117;28;20509;-59
2021/12/05 05:20:48;;;;;;;4.80;1.45;;;;;;;-0.16;91.12;96109.22;5018569;28;20047;-57
2021/12/05 05:23:36;;;;;;;5.72;1.75;;;;;;;-0.12;90.35;96110.44;5020451;28;20050;-59
2021/12/05 05:29:37;;;;;;;3.47;1.40;;;;;;;-0.21;90.27;96109.91;5020511;28;20048;-59
2021/12/05 05:40:16;;;;;;;4.47;1.23;;;;;;;-0.09;89.52;96107.34;5023311;28;20060;-60
2021/12/05 05:50:39;;;;;;;4.32;1.00;;;;;;;-0.15;89.16;96109.03;5018029;28;20394;-58
2021/12/05 05:53:07;;;;;;;2.72;1.00;;;;;;;-0.19;89.18;96107.81;5022888;28;20049;-59
2021/12/05 05:55:35;;;;;;;4.63;1.27;;;;;;;-0.29;89.86;96118.94;5021336;28;20034;-59
2021/12/05 05:58:08;;;;;;;2.15;1.05;;;;;;;-0.40;89.12;96112.44;5027040;28;20038;-59
2021/12/05 06:00:41;;;;;;;3.50;1.48;;;;;;;-0.44;89.99;96116.56;5027602;28;20041;-58
2021/12/05 06:03:21;;;;;;;2.00;1.50;;;;;;;-0.31;90.46;96114.84;5028773;28;20037;-58
2021/12/05 06:05:49;;;;;;;3.38;1.00;;;;;;;-0.49;89.58;96123.53;5016831;28;20666;-59
2021/12/05 06:08:17;;;;;;;4.38;1.17;;;;;;;-0.44;91.23;96111.22;5007974;28;20052;-58
2021/12/05 06:10:45;;;;;;;5.57;1.33;;;;;;;-0.56;90.37;96118.25;5009100;28;20048;-58
2021/12/05 06:13:11;;;;;;;2.85;1.17;;;;;;;-0.84;89.35;96108.78;5009187;28;20502;-59
2021/12/05 06:15:38;;;;;;;9.85;1.38;;;;;;;-0.97;90.34;96112.28;5020566;28;20593;-59
2021/12/05 06:18:04;;;;;;;4.63;1.20;;;;;;;-1.10;91.08;96113.94;5022527;28;20628;-59
2021/12/05 06:20:31;;;;;;;4.80;1.30;;;;;;;-1.15;91.55;96110.31;5017619;28;20037;-58
2021/12/05 06:23:00;;;;;;;4.10;1.50;;;;;;;-1.21;91.79;96112.75;5023821;28;20048;-59
2021/12/05 06:25:30;;;;;;;2.20;1.17;;;;;;;-1.45;91.71;96117.72;5028530;28;20057;-59
2021/12/05 06:28:01;;;;;;;4.75;1.60;;;;;;;-1.64;92.40;96119.34;5046749;28;20037;-58
2021/12/05 06:41:20;;;;;;;4.10;1.67;;;;;;;-1.50;92.66;96116.69;5026059;28;20057;-59
2021/12/05 06:46:21;;;;;;;4.53;2.15;;;;;;;-1.14;93.04;96122.56;5026145;28;20038;-57
2021/12/05 06:48:53;;;;;;;9.35;2.35;;;;;;;-1.22;92.46;96126.25;5017907;28;20042;-59
2021/12/05 06:51:23;;;;;;;3.75;2.13;;;;;;;-1.12;92.38;96131.94;5039401;28;20618;-58
2021/12/05 06:53:50;;;;;;;6.43;2.03;;;;;;;-1.09;91.91;96141.34;5007765;28;20049;-58
2021/12/05 06:56:17;;;;;;;5.95;2.10;;;;;;;-1.00;93.24;96142.75;5021473;28;20045;-59
2021/12/05 06:58:44;;;;;;;9.35;2.63;;;;;;;-0.93;93.48;96150.69;5022098;28;20045;-58
2021/12/05 07:01:11;;;;;;;6.10;2.10;;;;;;;-0.80;93.58;96141.88;5022845;28;20897;-58
2021/12/05 07:03:42;;;;;;;6.70;2.17;;;;;;;-0.88;92.38;96153.56;5026565;28;20424;-59
2021/12/05 07:06:19;;;;;;;4.28;1.83;;;;;;;-0.93;92.24;96143.53;5021911;28;20467;-59
2021/12/05 07:08:46;;;;;;;4.13;2.08;;;;;;;-1.04;91.73;96138.88;5021103;28;20044;-58
2021/12/05 07:11:24;;;;;;;3.50;1.90;;;;;;;-1.13;91.25;96142.78;5024360;28;20052;-59
2021/12/05 07:21:57;;;;;;;2.40;1.48;;;;;;;-0.86;91.50;96135.56;5039745;28;19929;-58
2021/12/05 07:24:44;;;;;;;3.60;1.50;;;;;;;-0.64;91.49;96131.78;5019728;28;20096;-59
2021/12/05 07:40:21;;;;;;;4.13;1.35;;;;;;;-0.57;90.65;96129.91;5012333;28;20050;-59
2021/12/05 07:41:50;;;;;;;3.17;1.40;;;;;;;-0.23;89.72;96127.91;5023568;28;20060;-58
2021/12/05 07:44:17;;;;;;;3.85;1.65;;;;;;;-0.33;90.20;96130.22;5026498;28;20108;-57
2021/12/05 07:46:46;;;;;;;3.95;1.50;;;;;;;-0.52;89.00;96135.41;5025105;28;20037;-59
2021/12/05 07:49:14;;;;;;;3.28;1.70;;;;;;;-0.51;91.15;96133.56;5026150;28;20112;-56
2021/12/05 07:51:45;;;;;;;3.47;1.48;;;;;;;-0.79;89.52;96143.50;5016905;28;20125;-58
2021/12/05 07:54:32;;;;;;;4.38;1.52;;;;;;;-0.90;90.78;96133.50;5020767;28;20041;-58
2021/12/05 07:57:17;;;;;;;5.22;1.92;;;;;;;-0.87;91.46;96133.94;5015043;28;20587;-57
2021/12/05 08:16:29;;;;;;;4.05;1.80;;;;;;;-1.23;91.69;96138.72;5039303;28;20035;-58
2021/12/05 08:18:56;;;;;;;3.58;1.45;;;;;;;-0.93;92.03;96132.91;5047521;28;20687;-59
2021/12/05 08:21:23;;;;;;;3.67;1.63;;;;;;;-0.77;90.90;96136.16;5037676;28;20488;-59
2021/12/05 08:23:50;;;;;;;4.30;1.67;;;;;;;-0.57;91.05;96145.88;5042277;28;20055;-58
2021/12/05 08:26:22;;;;;;;3.45;1.70;;;;;;;-0.40;91.50;96146.22;5032372;28;20045;-59
2021/12/05 08:34:23;;;;;;;3.42;1.85;;;;;;;-0.37;90.44;96152.94;5034967;28;20725;-58
2021/12/05 08:37:24;;;;;;;5.95;1.85;;;;;;;-0.21;91.26;96154.28;5042341;28;20053;-57
2021/12/05 08:45:55;;;;;;;50.53;22.35;;;;;;;-0.44;89.79;96153.78;5037946;28;20067;-59
2021/12/05 09:24:15;;;;;;;5.28;2.15;;;;;;;1.25;85.17;96167.69;5032114;28;20091;-58
2021/12/05 09:29:47;;;;;;;4.32;2.28;;;;;;;1.47;83.80;96159.22;5041162;28;20049;-58
2021/12/05 10:10:56;;;;;;;5.88;2.17;;;;;;;2.29;81.36;96173.13;5027148;28;20103;-59
2021/12/05 10:13:34;;;;;;;10.75;5.53;;;;;;;2.06;81.84;96170.16;5027570;28;20037;-58
2021/12/05 10:16:27;;;;;;;8.52;2.72;;;;;;;2.00;82.66;96167.56;5016018;28;20049;-58
2021/12/05 10:38:23;;;;;;;7.10;1.75;;;;;;;2.59;80.55;96140.19;5034974;28;20442;-57
2021/12/05 10:41:20;;;;;;;4.10;1.42;;;;;;;2.60;80.98;96126.59;5026222;28;20081;-58
2021/12/05 10:43:43;;;;;;;4.38;1.63;;;;;;;2.74;80.52;96129.03;5025901;28;20503;-57
2021/12/05 10:46:13;;;;;;;7.85;3.40;;;;;;;2.62;80.20;96125.53;5038498;28;20050;-58
2021/12/05 10:48:45;;;;;;;2.67;1.48;;;;;;;2.78;80.32;96124.03;5043334;28;20239;-59
2021/12/05 10:51:19;;;;;;;4.50;1.45;;;;;;;3.06;80.77;96119.84;5041397;28;20064;-58
2021/12/05 10:53:53;;;;;;;3.38;1.23;;;;;;;3.45;77.77;96122.78;5024333;28;20042;-58
2021/12/05 10:56:33;;;;;;;4.00;1.67;;;;;;;3.36;77.49;96121.53;5031102;28;20045;-59
2021/12/05 10:59:02;;;;;;;5.03;2.00;;;;;;;3.16;78.61;96113.91;5020543;28;20120;-59
2021/12/05 11:01:49;;;;;;;2.42;1.05;;;;;;;3.22;78.43;96116.44;5021602;28;20039;-60
2021/12/05 11:04:28;;;;;;;2.58;1.23;;;;;;;3.40;77.15;96113.81;5023962;28;20044;-62
2021/12/05 11:07:09;;;;;;;2.97;1.20;;;;;;;3.41;77.95;96105.56;5005736;28;20046;-59
2021/12/05 11:09:37;;;;;;;2.53;0.90;;;;;;;3.29;77.22;96108.28;5019705;28;20041;-58
2021/12/05 11:12:11;;;;;;;3.47;1.27;;;;;;;3.25;77.25;96102.56;5022524;28;20411;-61
2021/12/05 11:14:42;;;;;;;2.92;0.77;;;;;;;3.30;77.32;96107.22;5021214;28;20042;-57
2021/12/05 11:17:16;;;;;;;1.88;0.82;;;;;;;3.35;77.20;96106.50;5011704;28;20050;-60
2021/12/05 11:19:46;;;;;;;3.53;1.00;;;;;;;3.43;77.23;96108.00;5008892;28;20460;-57
2021/12/05 11:22:31;;;;;;;2.92;0.90;;;;;;;3.56;76.76;96104.22;5022171;28;20043;-57
2021/12/05 11:25:03;;;;;;;1.55;0.82;;;;;;;3.44;76.60;96112.31;5033007;28;20042;-58
2021/12/05 11:27:40;;;;;;;1.45;0.80;;;;;;;3.41;76.10;96115.44;5015699;28;20072;-57
2021/12/05 11:30:34;;;;;;;2.15;0.73;;;;;;;3.35;76.14;96110.00;5023997;28;20696;-60
2021/12/05 11:33:02;;;;;;;2.92;0.95;;;;;;;3.55;76.49;96110.63;5026095;28;20076;-59
2021/12/05 11:35:47;;;;;;;2.50;0.85;;;;;;;3.69;76.24;96108.50;5031950;28;20060;-58
2021/12/05 11:38:13;;;;;;;2.03;0.70;;;;;;;3.92;74.83;96099.53;5029761;28;20041;-57
2021/12/05 11:40:45;;;;;;;1.80;0.77;;;;;;;4.09;74.33;96107.59;5028111;28;20055;-59
2021/12/05 11:43:35;;;;;;;0.82;0.35;;;;;;;3.98;72.80;96108.50;5025111;28;20049;-58
2021/12/05 11:46:13;;;;;;;1.10;0.60;;;;;;;4.00;73.42;96101.84;5032198;28;20049;-58
2021/12/05 11:48:44;;;;;;;1.20;0.50;;;;;;;4.12;72.34;96100.94;5024425;28;20044;-58
2021/12/05 11:51:27;;;;;;;6.07;1.77;;;;;;;3.97;72.95;96094.28;5024077;28;20045;-58
2021/12/05 11:53:58;;;;;;;1.65;0.70;;;;;;;3.95;73.62;96090.22;5031258;28;20561;-58
2021/12/05 11:56:30;;;;;;;2.75;0.93;;;;;;;3.90;73.70;96085.56;5032428;28;20037;-59
2021/12/05 11:59:04;;;;;;;11.50;4.68;;;;;;;3.77;73.96;96084.03;5022392;28;20512;-60
2021/12/05 12:01:40;;;;;;;2.90;0.50;;;;;;;3.85;73.86;96090.84;5027976;28;20103;-60
2021/12/05 12:04:09;;;;;;;4.30;1.35;;;;;;;3.86;73.96;96087.09;5032129;28;20049;-59
2021/12/05 12:06:35;;;;;;;0.80;0.47;;;;;;;4.06;72.46;96086.66;5030695;28;20037;-60
2021/12/05 12:09:04;;;;;;;2.33;0.88;;;;;;;4.14;71.29;96080.09;5028398;28;20040;-59
2021/12/05 12:11:31;;;;;;;30.02;20.02;;;;;;;4.26;71.28;96083.50;5031569;28;20049;-59
2021/12/05 12:13:58;;;;;;;6.78;3.05;;;;;;;4.75;71.12;96089.34;5025206;28;20049;-60
2021/12/05 12:16:25;;;;;;;4.68;1.40;;;;;;;4.90;70.57;96091.44;5028496;28;20037;-60
2021/12/05 12:18:52;;;;;;;2.22;0.60;;;;;;;4.93;68.96;96083.69;5024473;28;20048;-59
2021/12/05 12:21:25;;;;;;;6.25;1.95;;;;;;;4.68;71.07;96079.59;5030126;28;20092;-59
2021/12/05 12:23:56;;;;;;;12.43;6.78;;;;;;;4.48;71.29;96080.09;5029359;28;20445;-59
2021/12/05 12:26:24;;;;;;;2.53;1.25;;;;;;;4.35;70.97;96083.91;5028972;28;20040;-58
2021/12/05 12:28:55;;;;;;;3.75;1.38;;;;;;;4.34;72.39;96092.19;5026505;28;20676;-58
2021/12/05 12:31:32;;;;;;;1.92;0.60;;;;;;;4.35;72.80;96094.63;5023518;28;20041;-57
2021/12/05 12:34:06;;;;;;;1.13;0.70;;;;;;;4.41;71.34;96095.53;5021540;28;20128;-58
2021/12/05 12:36:36;;;;;;;2.92;1.58;;;;;;;4.57;72.86;96096.56;5029019;28;20050;-60
2021/12/05 12:39:23;;;;;;;2.63;0.97;;;;;;;5.03;72.84;96098.28;5025799;28;20045;-61
2021/12/05 12:42:13;;;;;;;2.40;0.93;;;;;;;4.62;74.15;96095.84;5038547;28;20337;-63
2021/12/05 12:45:06;;;;;;;1.92;0.55;;;;;;;4.74;73.27;96101.09;5022728;28;20099;-62
2021/12/05 12:47:58;;;;;;;4.57;1.77;;;;;;;4.49;73.66;96113.09;5024237;28;20483;-62
2021/12/05 12:50:53;;;;;;;2.92;0.65;;;;;;;3.85;77.04;96114.94;5032720;28;20044;-60
2021/12/05 12:53:29;;;;;;;2.40;0.77;;;;;;;3.69;77.66;96111.97;5026636;28;20099;-60
2021/12/05 12:56:17;;;;;;;1.70;0.70;;;;;;;3.58;77.68;96110.16;5022949;28;20049;-62
2021/12/05 12:58:48;;;;;;;2.55;1.25;;;;;;;3.44;80.88;96115.81;5033965;28;20719;-62
2021/12/05 13:01:31;;;;;;;;;;;;;;;3.47;79.94;96114.50;5039235;28;20048;-62
2021/12/05 13:12:41;;;;;;;2.35;1.00;;;;;;;3.23;79.50;96101.19;5024693;28;20041;-61
2021/12/05 13:15:08;;;;;;;1.38;0.57;;;;;;;3.20;78.33;96101.66;5024118;28;20041;-63
2021/12/05 13:17:47;;;;;;;1.45;0.63;;;;;;;3.20;79.17;96113.16;5028650;28;20053;-61
2021/12/05 13:20:18;;;;;;;2.17;0.40;;;;;;;3.15;78.83;96109.56;5026769;28;20044;-62
2021/12/05 13:23:28;;;;;;;0.60;0.30;;;;;;;3.06;79.63;96115.28;5028418;28;20037;-62
2021/12/05 13:26:10;;;;;;;1.63;0.70;;;;;;;3.18;81.08;96120.63;5027006;28;20055;-61
2021/12/05 13:28:39;;;;;;;3.35;0.50;;;;;;;2.99;80.03;96114.59;5023931;28;20064;-59
2021/12/05 13:31:28;;;;;;;1.95;0.77;;;;;;;2.91;80.51;96112.28;5027939;28;20045;-62
2021/12/05 13:34:22;;;;;;;1.33;0.50;;;;;;;2.88;81.37;96116.25;5024720;28;20037;-62
2021/12/05 13:37:09;;;;;;;7.82;2.95;;;;;;;2.90;81.00;96114.13;5014620;28;20386;-61
2021/12/05 13:39:52;;;;;;;3.78;1.35;;;;;;;3.24;82.26;96121.53;5027415;28;20053;-61
2021/12/05 13:42:22;;;;;;;4.38;1.95;;;;;;;3.37;79.77;96120.47;5020836;28;20107;-63
2021/12/05 13:45:01;;;;;;;3.95;1.83;;;;;;;3.30;80.72;96115.25;5028246;28;20037;-63
2021/12/05 13:47:32;;;;;;;2.22;0.85;;;;;;;3.37;80.21;96120.47;5032611;28;20543;-62
2021/12/05 13:50:18;;;;;;;2.28;0.80;;;;;;;3.53;78.41;96126.13;5039788;28;20049;-58
2021/12/05 13:53:03;;;;;;;2.85;0.77;;;;;;;3.73;81.21;96123.81;5014955;28;20088;-58
2021/12/05 13:55:40;;;;;;;0.73;0.38;;;;;;;3.98;77.58;96122.69;5030385;28;20045;-60
2021/12/05 13:58:16;;;;;;;1.80;1.00;;;;;;;3.98;76.15;96114.66;5032969;28;20051;-58
2021/12/05 14:01:10;;;;;;;2.95;1.40;;;;;;;3.99;77.39;96118.16;5024624;28;20463;-57
2021/12/05 14:04:10;;;;;;;2.85;1.33;;;;;;;4.03;76.81;96130.00;5028632;28;20056;-57
2021/12/05 14:06:54;;;;;;;3.05;1.10;;;;;;;4.08;75.13;96134.63;5031154;28;20053;-58
2021/12/05 14:09:47;;;;;;;3.25;1.30;;;;;;;4.00;75.28;96144.69;5029882;28;20052;-58
2021/12/05 14:12:17;;;;;;;3.58;1.48;;;;;;;3.89;73.63;96150.91;5047310;28;20048;-58
2021/12/05 14:14:46;;;;;;;4.35;2.13;;;;;;;3.75;76.15;96156.53;5026926;28;20045;-58
2021/12/05 14:17:23;;;;;;;4.35;1.88;;;;;;;3.99;75.06;96158.31;5032615;28;20064;-58
2021/12/05 14:19:53;;;;;;;2.65;1.13;;;;;;;4.75;72.98;96154.50;5028272;28;20041;-58
2021/12/05 14:22:23;;;;;;;2.58;1.23;;;;;;;6.33;67.29;96162.38;5037690;28;20057;-58
2021/12/05 14:24:54;;;;;;;3.35;1.58;;;;;;;6.85;65.16;96164.66;5035314;28;20047;-57
2021/12/05 14:27:25;;;;;;;5.30;1.60;;;;;;;6.50;65.84;96161.44;5022565;28;20045;-58
2021/12/05 14:29:52;;;;;;;3.08;1.25;;;;;;;5.25;69.42;96160.03;5023421;28;20300;-58
2021/12/05 14:32:35;;;;;;;5.13;1.25;;;;;;;4.68;72.35;96161.88;5022002;28;20045;-58
2021/12/05 14:35:15;;;;;;;5.47;2.10;;;;;;;4.11;73.92;96161.75;5022563;28;20041;-58
2021/12/05 14:37:44;;;;;;;6.18;2.10;;;;;;;3.73;75.87;96166.66;5022340;28;20059;-58
2021/12/05 14:40:14;;;;;;;6.78;2.75;;;;;;;3.52;77.17;96170.81;5024613;28;20049;-58
2021/12/05 14:42:44;;;;;;;8.30;3.38;;;;;;;3.45;78.16;96165.59;5022614;28;20049;-58
2021/12/05 14:45:21;;;;;;;6.55;3.38;;;;;;;3.48;78.63;96167.81;5022680;28;20045;-58
2021/12/05 14:47:50;;;;;;;5.82;1.90;;;;;;;3.10;78.88;96171.81;5026276;28;20045;-59
2021/12/05 14:50:25;;;;;;;3.78;1.75;;;;;;;2.45;80.74;96174.31;5019783;28;20045;-58
2021/12/05 14:52:55;;;;;;;3.50;0.68;;;;;;;2.02;83.68;96181.50;5024463;28;20050;-59
2021/12/05 14:55:24;;;;;;;1.42;0.70;;;;;;;1.92;84.05;96184.72;5023957;28;20054;-61
2021/12/05 14:57:59;;;;;;;2.35;1.00;;;;;;;1.63;84.17;96179.97;5034552;28;20536;-59
2021/12/05 15:00:28;;;;;;;3.45;0.80;;;;;;;1.62;84.67;96186.31;5038856;28;20124;-59
2021/12/05 15:03:05;;;;;;;2.65;1.00;;;;;;;1.52;84.87;96183.38;5031840;28;20080;-59
2021/12/05 15:05:34;;;;;;;1.77;0.80;;;;;;;1.53;84.28;96188.50;5025482;28;20049;-59
2021/12/05 15:08:09;;;;;;;2.20;0.90;;;;;;;1.35;85.56;96197.28;5026219;28;20061;-58
2021/12/05 15:10:36;;;;;;;2.40;1.05;;;;;;;1.29;86.02;96206.19;5022172;28;20037;-58
2021/12/05 15:13:03;;;;;;;3.72;0.95;;;;;;;1.19;86.05;96211.22;5026017;28;20047;-58
2021/12/05 15:15:30;;;;;;;2.22;0.90;;;;;;;1.14;86.54;96209.22;5026547;28;20037;-57
2021/12/05 15:17:57;;;;;;;1.80;0.90;;;;;;;1.15;87.14;96216.19;5025102;28;20045;-57
2021/12/05 15:20:28;;;;;;;2.05;0.85;;;;;;;1.20;87.58;96226.16;5033061;28;20037;-58
2021/12/05 15:23:00;;;;;;;4.35;0.93;;;;;;;1.27;87.35;96232.25;5034715;28;20044;-59
2021/12/05 15:25:28;;;;;;;2.58;0.95;;;;;;;1.48;88.50;96235.53;5026080;28;20049;-59
2021/12/05 15:27:56;;;;;;;3.83;1.10;;;;;;;1.59;87.49;96234.81;5033305;28;20080;-60
2021/12/05 15:30:26;;;;;;;6.75;3.40;;;;;;;1.70;86.75;96235.91;5031684;28;20052;-60
2021/12/05 15:32:57;;;;;;;4.65;2.05;;;;;;;1.73;86.24;96238.13;5024765;28;20056;-59
2021/12/05 15:35:24;;;;;;;2.70;1.08;;;;;;;1.54;85.85;96232.78;5034530;28;20048;-59
2021/12/05 15:37:55;;;;;;;1.85;0.85;;;;;;;1.31;87.07;96236.13;5027611;28;20049;-56
2021/12/05 15:40:25;;;;;;;0.82;0.60;;;;;;;1.31;86.87;96236.13;5032501;28;20095;-58
2021/12/05 15:42:58;;;;;;;2.13;0.88;;;;;;;1.53;88.56;96241.84;5029708;28;20582;-58
2021/12/05 15:45:25;;;;;;;2.05;0.98;;;;;;;1.67;87.73;96242.50;5029480;28;20038;-59
2021/12/05 15:47:52;;;;;;;3.80;1.58;;;;;;;1.73;87.65;96248.00;5027632;28;20050;-59
2021/12/05 15:50:24;;;;;;;3.80;1.30;;;;;;;1.69;86.06;96252.94;5025249;28;20041;-58
2021/12/05 15:52:58;;;;;;;2.38;0.77;;;;;;;1.31;87.15;96249.44;5024947;28;20057;-58
2021/12/05 15:55:24;;;;;;;1.45;0.70;;;;;;;1.13;87.69;96253.72;5017366;28;20609;-58
2021/12/05 15:58:00;;;;;;;2.45;0.77;;;;;;;0.89;88.44;96253.50;5024985;28;20061;-58
2021/12/05 16:00:32;;;;;;;2.65;0.90;;;;;;;0.75;89.07;96258.16;5024925;28;20052;-58
2021/12/05 16:03:14;;;;;;;4.32;2.28;;;;;;;0.75;89.43;96262.66;5025924;28;20159;-58
2021/12/05 16:05:43;;;;;;;2.58;1.10;;;;;;;0.64;89.06;96259.66;5024894;28;20120;-58
2021/12/05 16:08:13;;;;;;;3.80;1.02;;;;;;;0.45;88.85;96260.59;5024284;28;20049;-58
2021/12/05 16:10:51;;;;;;;2.25;1.00;;;;;;;0.36;89.30;96257.34;5009516;28;20041;-58
2021/12/05 16:13:21;;;;;;;5.20;1.33;;;;;;;0.19;89.90;96259.72;5016478;28;20049;-59
2021/12/05 16:15:50;;;;;;;3.35;1.55;;;;;;;0.18;89.89;96258.09;5025136;28;20045;-58
2021/12/05 16:18:17;;;;;;;2.35;1.02;;;;;;;0.02;89.63;96264.72;5024218;28;20492;-60
2021/12/05 16:20:46;;;;;;;4.07;0.82;;;;;;;-0.12;89.91;96269.28;5016973;28;20049;-60
2021/12/05 16:23:21;;;;;;;3.00;0.77;;;;;;;-0.25;89.71;96270.13;5022381;28;20122;-61
2021/12/05 16:26:02;;;;;;;1.88;0.73;;;;;;;-0.36;90.69;96277.75;5023273;28;20049;-60
2021/12/05 16:28:34;;;;;;;6.00;1.75;;;;;;;-0.42;90.36;96276.75;5015940;28;20651;-61
2021/12/05 16:31:09;;;;;;;2.17;0.90;;;;;;;-0.35;90.49;96284.69;5024896;28;20461;-60
2021/12/05 16:33:42;;;;;;;2.60;1.00;;;;;;;-0.38;90.84;96281.66;5024449;28;20038;-60
2021/12/05 16:36:09;;;;;;;2.17;1.08;;;;;;;-0.49;90.15;96289.22;5029481;28;20075;-60
2021/12/05 16:38:45;;;;;;;2.10;1.27;;;;;;;-0.51;92.19;96283.31;5027459;28;20037;-61
2021/12/05 16:41:28;;;;;;;5.20;1.70;;;;;;;-0.30;91.33;96290.22;5029557;28;20046;-60
2021/12/05 16:44:03;;;;;;;5.93;1.95;;;;;;;-0.18;90.57;96294.88;5033038;28;20053;-60
2021/12/05 16:47:01;;;;;;;4.07;2.10;;;;;;;-0.31;89.78;96290.41;5028531;28;20048;-61
2021/12/05 16:49:34;;;;;;;7.38;2.60;;;;;;;-0.21;91.26;96298.78;5026303;28;20103;-60
2021/12/05 16:52:03;;;;;;;4.05;2.40;;;;;;;-0.40;89.67;96295.16;5027922;28;20060;-58
2021/12/05 16:55:03;;;;;;;5.90;2.60;;;;;;;-0.55;89.76;96301.50;5025707;28;20037;-58
2021/12/05 16:57:40;;;;;;;6.25;2.33;;;;;;;-0.59;90.81;96302.94;5023170;28;20590;-58
2021/12/05 17:00:15;;;;;;;6.10;2.90;;;;;;;-0.53;90.87;96298.66;5026811;28;20045;-56
2021/12/05 17:02:47;;;;;;;6.55;2.67;;;;;;;-0.65;90.17;96311.78;5024671;28;20053;-61
2021/12/05 17:05:23;;;;;;;6.72;2.78;;;;;;;-0.79;90.80;96310.97;5028421;28;20046;-61
2021/12/05 17:07:57;;;;;;;5.63;2.53;;;;;;;-0.85;90.74;96314.44;5029689;28;20045;-60
2021/12/05 17:10:23;;;;;;;6.50;3.17;;;;;;;-0.82;91.75;96314.03;5042246;28;20041;-57
2021/12/05 17:13:27;;;;;;;8.10;3.85;;;;;;;-0.89;91.33;96311.38;5027330;28;20049;-58
2021/12/05 17:16:06;;;;;;;7.22;3.13;;;;;;;-1.00;91.29;96318.13;5030548;28;20099;-60
2021/12/05 17:18:37;;;;;;;7.45;2.90;;;;;;;-0.85;90.96;96319.75;5036958;28;20052;-61
2021/12/05 17:21:16;;;;;;;7.68;4.03;;;;;;;-0.85;91.16;96328.53;5037293;28;20053;-60
2021/12/05 17:23:51;;;;;;;7.68;4.38;;;;;;;-1.12;90.97;96325.88;5032574;28;20489;-62
2021/12/05 17:26:23;;;;;;;7.43;3.50;;;;;;;-1.37;91.10;96326.47;5031250;28;20042;-59
2021/12/05 17:28:56;;;;;;;7.20;4.15;;;;;;;-1.41;91.35;96327.06;5024582;28;20057;-59
2021/12/05 17:31:29;;;;;;;8.32;4.85;;;;;;;-1.44;91.50;96331.75;5020710;28;20037;-59